Time;durP1;ratioP1;P1;durP2;ratioP2;P2;SDS_P1;SDS_P2;PMS_P1;PMS_P2;Temp;Humidity;BMP_temperature;BMP_pressure;BME280_temperature;BME280_humidity;BME280_pressure;Samples;Min_cycle;Max_cycle;Signal;HPM_P1;HPM_P2
2023/08/12 00:00:30;;;;;;;0.10;0.10;;;18.60;99.90;;;;;;5092262;27;20048;-72
2023/08/12 00:02:55;;;;;;;0.17;0.10;;;18.60;99.90;;;;;;5100054;27;20526;-72
2023/08/12 00:05:21;;;;;;;0.22;0.22;;;18.60;99.90;;;;;;5094529;27;20043;-72
2023/08/12 00:07:48;;;;;;;0.10;0.10;;;18.60;99.90;;;;;;5095554;27;20085;-72
2023/08/12 00:10:14;;;;;;;0.63;0.30;;;18.60;99.90;;;;;;5108703;27;20035;-72
2023/08/12 00:12:40;;;;;;;0.43;0.30;;;18.60;99.90;;;;;;5131697;27;20397;-72
2023/08/12 00:15:07;;;;;;;0.00;0.00;;;18.60;99.90;;;;;;5104791;27;20052;-72
2023/08/12 00:17:34;;;;;;;0.10;0.10;;;18.60;99.90;;;;;;5101441;27;20362;-72
2023/08/12 00:20:00;;;;;;;0.10;0.10;;;18.60;99.90;;;;;;5096637;27;20065;-72
2023/08/12 00:22:26;;;;;;;0.28;0.25;;;18.60;99.90;;;;;;5102207;27;20039;-72
2023/08/12 00:24:52;;;;;;;0.20;0.10;;;18.60;99.90;;;;;;5094078;27;20137;-72
2023/08/12 00:27:18;;;;;;;0.75;0.10;;;18.50;99.90;;;;;;5099111;27;20042;-72
2023/08/12 00:29:44;;;;;;;0.00;0.00;;;18.50;99.90;;;;;;5098831;27;20165;-72
2023/08/12 00:32:10;;;;;;;0.50;0.40;;;18.50;99.90;;;;;;5103319;27;20125;-72
2023/08/12 00:34:36;;;;;;;0.00;0.00;;;18.50;99.90;;;;;;5136443;27;20588;-72
2023/08/12 00:37:01;;;;;;;0.43;0.43;;;18.50;99.90;;;;;;5104766;27;20046;-72
2023/08/12 00:39:27;;;;;;;0.20;0.20;;;18.50;99.90;;;;;;5103094;27;20723;-72
2023/08/12 00:41:52;;;;;;;0.10;0.10;;;18.50;99.90;;;;;;5101447;27;20034;-72
2023/08/12 00:44:18;;;;;;;0.10;0.10;;;18.50;99.90;;;;;;5096243;27;20115;-71
2023/08/12 00:46:44;;;;;;;0.10;0.10;;;18.40;99.90;;;;;;5101267;27;20065;-72
2023/08/12 00:49:11;;;;;;;0.95;0.73;;;18.50;99.90;;;;;;5096736;27;20042;-72
2023/08/12 00:51:41;;;;;;;0.75;0.35;;;18.50;99.90;;;;;;5098394;28;20535;-72
2023/08/12 00:54:08;;;;;;;0.32;0.25;;;18.40;99.90;;;;;;5095949;27;20420;-72
2023/08/12 00:56:35;;;;;;;0.15;0.15;;;18.40;99.90;;;;;;5136891;27;20484;-72
2023/08/12 00:59:03;;;;;;;0.13;0.13;;;18.50;99.90;;;;;;5099533;27;20218;-72
2023/08/12 01:01:29;;;;;;;0.28;0.13;;;18.40;99.90;;;;;;5104090;27;20436;-72
2023/08/12 01:03:56;;;;;;;0.10;0.10;;;18.40;99.90;;;;;;5093489;27;20794;-71
2023/08/12 01:06:21;;;;;;;0.50;0.40;;;18.40;99.90;;;;;;5097281;27;20063;-72
2023/08/12 01:08:47;;;;;;;0.10;0.10;;;18.40;99.90;;;;;;5099474;27;20043;-72
2023/08/12 01:11:20;;;;;;;0.03;0.03;;;18.40;99.90;;;;;;5096199;27;20065;-72
2023/08/12 01:14:32;;;;;;;0.20;0.20;;;18.40;99.90;;;;;;5129938;27;20036;-72
2023/08/12 01:17:03;;;;;;;0.70;0.30;;;18.40;99.90;;;;;;5025268;28;20044;-72
2023/08/12 01:19:37;;;;;;;0.30;0.27;;;18.40;99.90;;;;;;5119591;27;20083;-72
2023/08/12 01:22:04;;;;;;;0.20;0.20;;;18.30;99.90;;;;;;5102445;27;20405;-72
2023/08/12 01:24:41;;;;;;;2.40;0.30;;;18.30;99.90;;;;;;5108553;27;20491;-72
2023/08/12 01:27:09;;;;;;;0.25;0.25;;;18.30;99.90;;;;;;5100771;27;20640;-72
2023/08/12 01:29:38;;;;;;;0.20;0.20;;;18.30;99.90;;;;;;5094946;27;20856;-72
2023/08/12 01:32:47;;;;;;;0.47;0.47;;;18.30;99.90;;;;;;5096565;27;20096;-72
2023/08/12 01:35:30;;;;;;;0.17;0.10;;;18.20;99.90;;;;;;5100842;27;20047;-72
2023/08/12 01:37:59;;;;;;;0.70;0.45;;;18.20;99.90;;;;;;5091240;28;20044;-72
2023/08/12 01:40:25;;;;;;;0.75;0.70;;;18.20;99.90;;;;;;5097178;27;20051;-73
2023/08/12 01:42:51;;;;;;;0.08;0.08;;;18.20;99.90;;;;;;5100207;27;20036;-72
2023/08/12 01:45:18;;;;;;;0.35;0.17;;;18.20;99.90;;;;;;5097289;27;20042;-73
2023/08/12 01:47:44;;;;;;;0.08;0.08;;;18.20;99.90;;;;;;5098546;27;20475;-72
2023/08/12 01:50:10;;;;;;;0.60;0.60;;;18.20;99.90;;;;;;5096025;27;20038;-72
2023/08/12 01:52:36;;;;;;;0.10;0.10;;;18.30;99.90;;;;;;5098419;28;20039;-72
2023/08/12 01:55:01;;;;;;;0.90;0.20;;;18.30;99.90;;;;;;5128609;27;20035;-72
2023/08/12 01:57:27;;;;;;;0.35;0.35;;;18.30;99.90;;;;;;5097074;27;20087;-72
2023/08/12 01:59:53;;;;;;;0.45;0.20;;;18.30;99.90;;;;;;5098135;27;20037;-72
2023/08/12 02:02:18;;;;;;;0.22;0.22;;;18.30;99.90;;;;;;5097510;27;20099;-72
2023/08/12 02:04:44;;;;;;;0.43;0.35;;;18.30;99.90;;;;;;5091926;28;20043;-72
2023/08/12 02:07:10;;;;;;;0.10;0.10;;;18.30;99.90;;;;;;5100126;27;20756;-72
2023/08/12 02:09:35;;;;;;;0.10;0.10;;;18.30;99.90;;;;;;5093498;27;20580;-72
2023/08/12 02:12:01;;;;;;;0.32;0.30;;;18.30;99.90;;;;;;5096605;27;20118;-72
2023/08/12 02:14:27;;;;;;;0.20;0.20;;;18.30;99.90;;;;;;5095741;27;20042;-72
2023/08/12 02:16:52;;;;;;;0.40;0.40;;;18.40;99.90;;;;;;5104977;27;20137;-72
2023/08/12 02:19:18;;;;;;;0.47;0.45;;;18.40;99.90;;;;;;5094862;27;20035;-72
2023/08/12 02:21:43;;;;;;;0.17;0.17;;;18.40;99.90;;;;;;5097658;27;20123;-72
2023/08/12 02:24:09;;;;;;;0.45;0.45;;;18.40;99.90;;;;;;5092960;28;20024;-72
2023/08/12 02:26:35;;;;;;;0.00;0.00;;;18.40;99.90;;;;;;5113013;27;20031;-73
2023/08/12 02:29:00;;;;;;;0.20;0.20;;;18.40;99.90;;;;;;5098169;27;20050;-72
2023/08/12 02:31:26;;;;;;;0.40;0.20;;;18.40;99.90;;;;;;5102256;27;20032;-72
2023/08/12 02:33:52;;;;;;;28.10;1.42;;;18.40;99.90;;;;;;5093242;28;20387;-72
2023/08/12 02:36:17;;;;;;;0.17;0.13;;;18.40;99.90;;;;;;5097804;28;20030;-72
2023/08/12 02:38:43;;;;;;;0.20;0.20;;;18.50;99.90;;;;;;5094676;27;20040;-72
2023/08/12 02:41:09;;;;;;;0.52;0.52;;;18.50;99.90;;;;;;5096252;28;20046;-72
2023/08/12 02:43:35;;;;;;;0.05;0.05;;;18.50;99.90;;;;;;5101806;28;20039;-72
2023/08/12 02:46:00;;;;;;;0.10;0.10;;;18.50;99.90;;;;;;5097962;28;20083;-72
2023/08/12 02:48:26;;;;;;;0.32;0.20;;;18.50;99.90;;;;;;5095566;27;20046;-72
2023/08/12 02:50:52;;;;;;;0.25;0.05;;;18.50;99.90;;;;;;5098816;27;20048;-72
2023/08/12 02:53:17;;;;;;;0.65;0.05;;;18.60;99.90;;;;;;5114959;27;20098;-72
2023/08/12 02:55:44;;;;;;;1.75;0.20;;;18.60;99.90;;;;;;5116779;27;20533;-72
2023/08/12 02:58:10;;;;;;;0.10;0.10;;;18.60;99.90;;;;;;5130675;27;20047;-72
2023/08/12 03:00:36;;;;;;;0.25;0.10;;;18.60;99.90;;;;;;5107601;27;20087;-72
2023/08/12 03:03:01;;;;;;;0.00;0.00;;;18.60;99.90;;;;;;5100786;27;20047;-72
2023/08/12 03:05:27;;;;;;;0.10;0.10;;;18.60;99.90;;;;;;5103783;27;20146;-72
2023/08/12 03:07:52;;;;;;;0.45;0.10;;;18.70;99.90;;;;;;5104566;27;20391;-72
2023/08/12 03:10:18;;;;;;;0.30;0.20;;;18.70;99.90;;;;;;5104226;27;20035;-72
2023/08/12 03:12:44;;;;;;;0.40;0.40;;;18.70;99.90;;;;;;5100400;27;20778;-72
2023/08/12 03:15:10;;;;;;;0.30;0.30;;;18.70;99.90;;;;;;5095575;27;20039;-72
2023/08/12 03:17:38;;;;;;;0.10;0.10;;;18.70;99.90;;;;;;5103028;27;20040;-72
2023/08/12 03:20:05;;;;;;;1.33;1.25;;;18.70;99.90;;;;;;5101869;27;20058;-72
2023/08/12 03:22:31;;;;;;;0.10;0.10;;;18.70;99.90;;;;;;5110130;27;20048;-72
2023/08/12 03:24:57;;;;;;;0.20;0.20;;;18.70;99.90;;;;;;5107924;27;20173;-72
2023/08/12 03:27:22;;;;;;;0.00;0.00;;;18.70;99.90;;;;;;5095812;27;20516;-73
2023/08/12 03:29:48;;;;;;;0.45;0.10;;;18.70;99.90;;;;;;5099181;27;20046;-72
2023/08/12 03:32:13;;;;;;;0.03;0.03;;;18.70;99.90;;;;;;5101850;27;20079;-72
2023/08/12 03:34:39;;;;;;;0.43;0.13;;;18.70;99.90;;;;;;5120809;27;21199;-72
2023/08/12 03:37:05;;;;;;;0.25;0.22;;;18.70;99.90;;;;;;5098859;27;20044;-72
2023/08/12 03:39:30;;;;;;;0.20;0.20;;;18.70;99.90;;;;;;5096040;27;20039;-72
2023/08/12 03:41:56;;;;;;;0.40;0.30;;;18.70;99.90;;;;;;5100298;27;20031;-72
2023/08/12 03:44:22;;;;;;;0.00;0.00;;;18.70;99.90;;;;;;5097123;27;20046;-71
2023/08/12 03:46:48;;;;;;;0.43;0.30;;;18.80;99.90;;;;;;5098132;27;20035;-72
2023/08/12 03:49:13;;;;;;;0.45;0.45;;;18.70;99.90;;;;;;5089574;27;20358;-72
2023/08/12 03:51:39;;;;;;;0.30;0.30;;;18.80;99.90;;;;;;5107082;27;20042;-72
2023/08/12 03:54:05;;;;;;;0.40;0.40;;;18.80;99.90;;;;;;5097892;27;20506;-72
2023/08/12 03:56:30;;;;;;;0.35;0.35;;;18.70;99.90;;;;;;5107775;27;20036;-72
2023/08/12 03:58:56;;;;;;;0.57;0.30;;;18.80;99.90;;;;;;5135566;27;20172;-72
2023/08/12 04:01:22;;;;;;;0.35;0.20;;;18.80;99.90;;;;;;5098150;27;20549;-72
2023/08/12 04:03:48;;;;;;;0.75;0.20;;;18.80;99.90;;;;;;5102738;27;20092;-72
2023/08/12 04:06:13;;;;;;;0.30;0.28;;;18.80;99.90;;;;;;5098441;27;20074;-72
2023/08/12 04:08:39;;;;;;;0.17;0.17;;;18.80;99.90;;;;;;5100538;27;20371;-72
2023/08/12 04:11:04;;;;;;;0.32;0.17;;;18.80;99.90;;;;;;5102125;27;20031;-72
2023/08/12 04:13:30;;;;;;;0.15;0.10;;;18.80;99.90;;;;;;5101699;27;20043;-72
2023/08/12 04:15:56;;;;;;;1.75;0.43;;;18.80;99.90;;;;;;5113842;27;21393;-72
2023/08/12 04:18:22;;;;;;;0.43;0.40;;;18.80;99.90;;;;;;5103982;27;20046;-72
2023/08/12 04:20:52;;;;;;;0.40;0.40;;;18.80;99.90;;;;;;5101437;27;20646;-72
2023/08/12 04:23:18;;;;;;;0.30;0.30;;;18.80;99.90;;;;;;5116863;27;20432;-72
2023/08/12 04:25:45;;;;;;;0.38;0.38;;;18.80;99.90;;;;;;5103346;27;20039;-72
2023/08/12 04:28:11;;;;;;;0.10;0.10;;;18.80;99.90;;;;;;5097404;27;20058;-72
2023/08/12 04:30:43;;;;;;;0.10;0.10;;;18.80;99.90;;;;;;5099213;27;20113;-72
2023/08/12 04:33:09;;;;;;;0.10;0.10;;;18.80;99.90;;;;;;5097703;27;20809;-72
2023/08/12 04:35:35;;;;;;;0.00;0.00;;;18.90;99.90;;;;;;5111223;27;20038;-72
2023/08/12 04:38:00;;;;;;;0.13;0.13;;;18.90;99.90;;;;;;5099730;27;20136;-72
2023/08/12 04:40:26;;;;;;;0.32;0.32;;;18.80;99.90;;;;;;5123830;27;21357;-72
2023/08/12 04:42:52;;;;;;;0.20;0.20;;;18.90;99.90;;;;;;5098811;27;20034;-72
2023/08/12 04:45:17;;;;;;;0.10;0.10;;;18.90;99.90;;;;;;5101612;27;20046;-72
2023/08/12 04:47:43;;;;;;;0.20;0.20;;;18.90;99.90;;;;;;5133831;27;20593;-72
2023/08/12 04:50:09;;;;;;;0.08;0.08;;;18.90;99.90;;;;;;5104088;27;20034;-72
2023/08/12 04:52:34;;;;;;;1.08;0.57;;;18.90;99.90;;;;;;5097938;27;20063;-72
2023/08/12 04:55:00;;;;;;;0.32;0.20;;;18.90;99.90;;;;;;5137465;27;20500;-72
2023/08/12 04:57:26;;;;;;;0.10;0.10;;;18.90;99.90;;;;;;5099384;27;20035;-72
2023/08/12 04:59:52;;;;;;;0.93;0.13;;;18.90;99.90;;;;;;5098871;27;20443;-72
2023/08/12 05:02:20;;;;;;;0.55;0.55;;;18.90;99.90;;;;;;5091519;27;20046;-72
2023/08/12 05:04:50;;;;;;;0.20;0.10;;;18.90;99.90;;;;;;5094889;27;20547;-72
2023/08/12 05:07:16;;;;;;;0.35;0.35;;;18.90;99.90;;;;;;5092109;27;20524;-72
2023/08/12 05:09:45;;;;;;;0.20;0.20;;;19.00;99.90;;;;;;5095975;27;20047;-72
2023/08/12 05:12:11;;;;;;;0.32;0.28;;;19.00;99.90;;;;;;5098225;27;20035;-72
2023/08/12 05:14:38;;;;;;;0.20;0.20;;;19.10;99.90;;;;;;5094756;27;20051;-72
2023/08/12 05:17:05;;;;;;;1.10;0.25;;;19.10;99.90;;;;;;5115428;27;20077;-72
2023/08/12 05:19:31;;;;;;;0.30;0.30;;;19.10;99.90;;;;;;5097816;27;20040;-72
2023/08/12 05:21:57;;;;;;;0.75;0.57;;;19.20;99.90;;;;;;5096623;27;20038;-72
2023/08/12 05:24:23;;;;;;;0.90;0.52;;;19.20;99.90;;;;;;5094410;27;20035;-72
2023/08/12 05:26:48;;;;;;;0.30;0.30;;;19.30;99.90;;;;;;5099882;27;20144;-72
2023/08/12 05:29:14;;;;;;;0.22;0.22;;;19.40;99.90;;;;;;5133277;27;20469;-72
2023/08/12 05:31:40;;;;;;;0.47;0.47;;;19.50;99.90;;;;;;5096450;27;20080;-72
2023/08/12 05:34:05;;;;;;;0.28;0.20;;;19.60;99.90;;;;;;5129462;27;20039;-72
2023/08/12 05:36:31;;;;;;;1.17;0.88;;;19.70;99.90;;;;;;5094646;27;20527;-72
2023/08/12 05:38:56;;;;;;;0.15;0.15;;;19.70;99.90;;;;;;5098643;27;20598;-72
2023/08/12 05:41:22;;;;;;;0.28;0.22;;;19.80;99.90;;;;;;5098639;27;20478;-72
2023/08/12 05:43:48;;;;;;;1.33;0.47;;;19.80;99.90;;;;;;5102124;27;20046;-72
2023/08/12 05:46:14;;;;;;;0.85;0.57;;;19.80;99.90;;;;;;5093243;28;20035;-72
2023/08/12 05:48:40;;;;;;;0.28;0.28;;;19.90;99.90;;;;;;5093974;27;20046;-72
2023/08/12 05:51:06;;;;;;;3.28;0.40;;;19.90;99.90;;;;;;5094848;27;20043;-73
2023/08/12 05:53:32;;;;;;;0.15;0.15;;;20.00;99.90;;;;;;5090354;27;20036;-73
2023/08/12 05:55:58;;;;;;;0.50;0.50;;;20.00;99.90;;;;;;5102513;27;20100;-72
2023/08/12 05:58:24;;;;;;;0.20;0.20;;;20.00;99.90;;;;;;5090949;28;20043;-73
2023/08/12 06:00:50;;;;;;;6.13;0.32;;;20.00;99.90;;;;;;5114768;27;20367;-73
2023/08/12 06:03:16;;;;;;;0.80;0.30;;;20.00;99.90;;;;;;5097518;27;20047;-73
2023/08/12 06:05:44;;;;;;;0.22;0.20;;;20.00;99.90;;;;;;5112878;27;20042;-73
2023/08/12 06:08:10;;;;;;;2.13;0.52;;;20.00;99.90;;;;;;5093806;27;20124;-73
2023/08/12 06:10:36;;;;;;;1.70;0.57;;;20.00;99.90;;;;;;5095647;27;20466;-73
2023/08/12 06:13:01;;;;;;;1.13;1.02;;;20.00;99.90;;;;;;5109119;27;20043;-73
2023/08/12 06:15:27;;;;;;;0.20;0.20;;;20.00;99.90;;;;;;5094923;27;20077;-73
2023/08/12 06:17:52;;;;;;;1.40;0.77;;;20.00;99.90;;;;;;5111656;27;20039;-73
2023/08/12 06:20:18;;;;;;;0.55;0.55;;;20.00;99.90;;;;;;5100312;27;20043;-73
2023/08/12 06:22:44;;;;;;;0.47;0.47;;;20.00;99.90;;;;;;5082481;27;20035;-73
2023/08/12 06:25:09;;;;;;;0.93;0.90;;;20.00;99.90;;;;;;5096164;27;20039;-74
2023/08/12 06:27:35;;;;;;;0.35;0.22;;;20.10;99.90;;;;;;5095565;27;20486;-73
2023/08/12 06:30:00;;;;;;;0.20;0.20;;;20.10;99.90;;;;;;5097378;27;20065;-73
2023/08/12 06:32:26;;;;;;;0.60;0.60;;;20.10;99.90;;;;;;5092472;28;20039;-73
2023/08/12 06:34:51;;;;;;;0.82;0.50;;;20.20;99.90;;;;;;5079338;27;20451;-73
2023/08/12 06:37:17;;;;;;;0.80;0.73;;;20.20;99.90;;;;;;5123821;27;20946;-73
2023/08/12 06:39:43;;;;;;;0.30;0.30;;;20.20;99.90;;;;;;5099273;27;20471;-73
2023/08/12 06:42:08;;;;;;;0.25;0.22;;;20.20;99.90;;;;;;5095235;28;20035;-73
2023/08/12 06:44:34;;;;;;;0.40;0.40;;;20.30;99.90;;;;;;5108077;28;20058;-72
2023/08/12 06:46:59;;;;;;;0.20;0.20;;;20.20;99.90;;;;;;5093625;28;20039;-72
2023/08/12 06:49:25;;;;;;;0.75;0.75;;;20.20;99.90;;;;;;5090879;28;20039;-72
2023/08/12 06:51:50;;;;;;;3.08;1.13;;;20.20;99.90;;;;;;5089886;28;20031;-72
2023/08/12 06:54:16;;;;;;;0.32;0.32;;;20.20;99.90;;;;;;5092262;28;20039;-72
2023/08/12 06:56:42;;;;;;;0.63;0.57;;;20.20;99.90;;;;;;5101064;28;20035;-72
2023/08/12 06:59:07;;;;;;;0.10;0.10;;;20.20;99.90;;;;;;5118531;28;20159;-73
2023/08/12 07:01:33;;;;;;;0.73;0.52;;;20.20;99.90;;;;;;5099801;28;20063;-72
2023/08/12 07:03:58;;;;;;;0.88;0.32;;;20.20;99.90;;;;;;5094497;28;20054;-72
2023/08/12 07:06:24;;;;;;;0.10;0.10;;;20.20;99.90;;;;;;5100701;28;20046;-72
2023/08/12 07:08:50;;;;;;;5.47;0.47;;;20.20;99.90;;;;;;5095789;28;20089;-72
2023/08/12 07:11:15;;;;;;;0.25;0.25;;;20.20;99.90;;;;;;5094610;28;20323;-72
2023/08/12 07:13:42;;;;;;;0.57;0.57;;;20.20;99.90;;;;;;5127003;27;20039;-72
2023/08/12 07:16:08;;;;;;;0.20;0.20;;;20.30;99.90;;;;;;5123246;27;20039;-72
2023/08/12 07:18:33;;;;;;;2.60;0.17;;;20.30;99.90;;;;;;5095787;28;20047;-72
2023/08/12 07:20:59;;;;;;;1.45;1.00;;;20.30;99.90;;;;;;5112924;28;20043;-72
2023/08/12 07:23:25;;;;;;;0.15;0.15;;;20.30;99.90;;;;;;5096837;28;20446;-72
2023/08/12 07:25:51;;;;;;;0.43;0.43;;;20.30;99.90;;;;;;5094189;28;20137;-72
2023/08/12 07:28:16;;;;;;;1.13;1.05;;;20.30;99.90;;;;;;5093538;28;20039;-72
2023/08/12 07:30:42;;;;;;;0.88;0.85;;;20.30;99.90;;;;;;5088682;28;20043;-72
2023/08/12 07:33:07;;;;;;;0.10;0.10;;;20.30;99.90;;;;;;5091650;28;20035;-72
2023/08/12 07:35:33;;;;;;;1.10;0.60;;;20.30;99.90;;;;;;5131129;27;20046;-72
2023/08/12 07:37:59;;;;;;;0.70;0.70;;;20.30;99.90;;;;;;5098981;27;20105;-72
2023/08/12 07:40:24;;;;;;;0.40;0.40;;;20.30;99.90;;;;;;5098076;27;20489;-72
2023/08/12 07:42:50;;;;;;;0.20;0.20;;;20.30;99.90;;;;;;5095316;27;20031;-72
2023/08/12 07:45:16;;;;;;;0.47;0.40;;;20.30;99.90;;;;;;5101924;27;20046;-71
2023/08/12 07:47:41;;;;;;;0.68;0.38;;;20.30;99.90;;;;;;5096939;27;20031;-72
2023/08/12 07:50:07;;;;;;;0.52;0.38;;;20.20;99.90;;;;;;5101199;27;20047;-74
2023/08/12 07:52:33;;;;;;;0.32;0.20;;;20.20;99.90;;;;;;5108548;27;20047;-74
2023/08/12 07:54:58;;;;;;;0.28;0.28;;;20.20;99.90;;;;;;5103223;27;20035;-75
2023/08/12 07:57:24;;;;;;;0.30;0.30;;;20.20;99.90;;;;;;5103633;27;20542;-74
2023/08/12 07:59:51;;;;;;;2.72;1.85;;;20.20;99.90;;;;;;5096766;27;20482;-71
2023/08/12 08:02:16;;;;;;;0.32;0.32;;;20.20;99.90;;;;;;5099380;27;20051;-69
2023/08/12 08:04:42;;;;;;;0.70;0.60;;;20.20;99.90;;;;;;5104161;27;20037;-69
2023/08/12 08:07:08;;;;;;;0.95;0.63;;;20.20;99.90;;;;;;5109948;27;20062;-68
2023/08/12 08:09:34;;;;;;;0.45;0.35;;;20.10;99.90;;;;;;5106284;27;20393;-67
2023/08/12 08:12:00;;;;;;;0.28;0.28;;;20.10;99.90;;;;;;5100493;27;20047;-67
2023/08/12 08:14:27;;;;;;;0.93;0.63;;;20.10;99.90;;;;;;5102359;27;20050;-68
2023/08/12 08:16:53;;;;;;;2.03;0.25;;;20.10;99.90;;;;;;5102550;27;20110;-68
2023/08/12 08:19:18;;;;;;;1.63;0.50;;;20.10;99.90;;;;;;5096335;27;20039;-69
2023/08/12 08:21:44;;;;;;;1.35;1.02;;;20.10;99.90;;;;;;5127105;27;20571;-69
2023/08/12 08:24:12;;;;;;;1.30;0.65;;;20.10;99.90;;;;;;5094606;27;20071;-70
2023/08/12 08:26:40;;;;;;;0.20;0.10;;;20.00;99.90;;;;;;5098586;27;20099;-70
2023/08/12 08:29:06;;;;;;;1.08;0.50;;;20.00;99.90;;;;;;5107226;27;20067;-71
2023/08/12 08:31:31;;;;;;;0.52;0.52;;;20.00;99.90;;;;;;5122234;27;20074;-72
2023/08/12 08:33:57;;;;;;;0.77;0.28;;;20.00;99.90;;;;;;5101448;27;20035;-74
2023/08/12 08:36:23;;;;;;;0.20;0.20;;;19.90;99.90;;;;;;5111106;27;20034;-74
2023/08/12 08:38:49;;;;;;;0.15;0.15;;;19.90;99.90;;;;;;5088483;27;20039;-72
2023/08/12 08:41:16;;;;;;;0.85;0.68;;;19.80;99.90;;;;;;5100795;27;20154;-74
2023/08/12 08:43:45;;;;;;;0.10;0.10;;;19.90;99.90;;;;;;5096376;27;20469;-76
2023/08/12 08:46:15;;;;;;;0.40;0.20;;;19.90;99.90;;;;;;5078700;27;20040;-77
2023/08/12 08:48:42;;;;;;;0.63;0.47;;;19.90;99.90;;;;;;5101199;27;20036;-77
2023/08/12 08:51:09;;;;;;;0.30;0.13;;;19.80;99.90;;;;;;5107162;27;20424;-77
2023/08/12 08:53:39;;;;;;;0.75;0.28;;;19.80;99.90;;;;;;5096706;27;20038;-77
2023/08/12 08:56:06;;;;;;;0.85;0.40;;;19.80;99.90;;;;;;5117296;27;20440;-77
2023/08/12 08:58:32;;;;;;;0.57;0.52;;;19.80;99.90;;;;;;5100720;27;20446;-77
2023/08/12 09:00:58;;;;;;;0.30;0.30;;;19.80;99.90;;;;;;5095809;27;20035;-79
2023/08/12 09:03:25;;;;;;;0.50;0.20;;;19.80;99.90;;;;;;5095748;27;20053;-78
2023/08/12 09:05:52;;;;;;;1.08;0.52;;;19.70;99.90;;;;;;5128977;27;20038;-79
2023/08/12 09:08:18;;;;;;;1.02;0.10;;;19.80;99.90;;;;;;5110173;27;20039;-77
2023/08/12 09:10:45;;;;;;;0.50;0.50;;;19.80;99.90;;;;;;5088332;27;20136;-75
2023/08/12 09:13:11;;;;;;;0.10;0.10;;;19.80;99.90;;;;;;5083982;27;20478;-78
2023/08/12 09:15:37;;;;;;;0.93;0.90;;;19.80;99.90;;;;;;5082437;28;20032;-77
2023/08/12 09:18:06;;;;;;;0.20;0.20;;;19.80;99.90;;;;;;5116839;27;20048;-76
2023/08/12 09:20:33;;;;;;;0.00;0.00;;;19.80;99.90;;;;;;5097039;27;20043;-76
2023/08/12 09:22:59;;;;;;;0.57;0.17;;;19.80;99.90;;;;;;5105429;27;20118;-74
2023/08/12 09:25:26;;;;;;;0.13;0.13;;;19.80;99.90;;;;;;5099757;27;20497;-74
2023/08/12 09:27:55;;;;;;;0.10;0.10;;;19.80;99.90;;;;;;5102866;27;20121;-74
2023/08/12 09:30:22;;;;;;;0.00;0.00;;;19.80;99.90;;;;;;5102945;27;20088;-74
2023/08/12 09:33:03;;;;;;;0.30;0.30;;;19.70;99.90;;;;;;5117409;27;20126;-72
2023/08/12 09:35:40;;;;;;;0.70;0.43;;;19.80;99.90;;;;;;5110802;27;20096;-72
2023/08/12 09:38:08;;;;;;;0.20;0.20;;;19.70;99.90;;;;;;5109048;27;20116;-73
2023/08/12 09:40:35;;;;;;;0.75;0.70;;;19.80;99.90;;;;;;5110694;27;20095;-73
2023/08/12 09:43:01;;;;;;;0.08;0.08;;;19.80;99.90;;;;;;5110284;27;20043;-73
2023/08/12 09:45:27;;;;;;;0.00;0.00;;;19.70;99.90;;;;;;5099054;27;20043;-73
2023/08/12 09:47:54;;;;;;;0.47;0.47;;;19.80;99.90;;;;;;5095650;27;20054;-72
2023/08/12 09:50:27;;;;;;;0.10;0.10;;;19.80;99.90;;;;;;5095588;27;20344;-72
2023/08/12 09:52:55;;;;;;;0.40;0.40;;;19.80;99.90;;;;;;5107424;27;20390;-71
2023/08/12 09:55:24;;;;;;;0.17;0.15;;;19.80;99.90;;;;;;5105591;27;20063;-72
2023/08/12 09:57:54;;;;;;;0.10;0.10;;;19.80;99.90;;;;;;5103477;27;20043;-72
2023/08/12 10:00:22;;;;;;;0.00;0.00;;;19.90;99.90;;;;;;5127343;27;20044;-72
2023/08/12 10:02:49;;;;;;;0.10;0.10;;;19.90;99.90;;;;;;5102806;27;20058;-73
2023/08/12 10:05:28;;;;;;;0.10;0.10;;;19.90;99.90;;;;;;5101712;27;20031;-72
2023/08/12 10:07:54;;;;;;;0.20;0.20;;;20.00;99.90;;;;;;5108786;27;20550;-73
2023/08/12 10:10:22;;;;;;;0.10;0.10;;;20.00;99.90;;;;;;5101329;27;20100;-73
2023/08/12 10:12:48;;;;;;;0.10;0.10;;;20.00;99.90;;;;;;5134166;27;20043;-73
2023/08/12 10:15:14;;;;;;;0.20;0.20;;;20.00;99.90;;;;;;5113072;27;20042;-73
2023/08/12 10:17:44;;;;;;;0.10;0.10;;;20.00;99.90;;;;;;5112525;27;20074;-72
2023/08/12 10:20:13;;;;;;;0.10;0.10;;;20.00;99.90;;;;;;5104708;27;20042;-73
2023/08/12 10:22:40;;;;;;;0.10;0.10;;;19.90;99.90;;;;;;5106871;27;20478;-74
2023/08/12 10:25:10;;;;;;;0.28;0.28;;;19.90;99.90;;;;;;5104552;28;20118;-72
2023/08/12 10:27:37;;;;;;;0.35;0.35;;;19.80;99.90;;;;;;5098497;28;20574;-69
2023/08/12 10:30:04;;;;;;;0.40;0.40;;;19.90;99.90;;;;;;5138731;27;20063;-71
2023/08/12 10:32:32;;;;;;;0.10;0.10;;;19.80;99.90;;;;;;5092618;28;20443;-72
2023/08/12 10:34:58;;;;;;;0.10;0.10;;;19.80;99.90;;;;;;5099412;28;20043;-71
2023/08/12 10:37:31;;;;;;;0.45;0.45;;;19.80;99.90;;;;;;5094281;28;20054;-67
2023/08/12 10:39:56;;;;;;;0.30;0.30;;;19.90;99.90;;;;;;5098227;28;20505;-69
2023/08/12 10:42:42;;;;;;;0.10;0.10;;;19.90;99.90;;;;;;5109642;28;20035;-69
2023/08/12 10:45:09;;;;;;;0.10;0.10;;;19.90;99.90;;;;;;5104259;27;20129;-69
2023/08/12 10:48:17;;;;;;;0.28;0.20;;;19.90;99.90;;;;;;5109068;28;20583;-67
2023/08/12 10:50:48;;;;;;;0.30;0.20;;;20.00;99.90;;;;;;5016267;28;20480;-68
2023/08/12 10:53:29;;;;;;;2.23;0.53;;;20.30;99.90;;;;;;5035166;28;20045;-67
2023/08/12 10:55:57;;;;;;;0.10;0.10;;;20.30;99.90;;;;;;5100850;27;20047;-69
2023/08/12 10:58:41;;;;;;;0.30;0.30;;;20.40;99.90;;;;;;5139228;27;20042;-66
2023/08/12 11:01:13;;;;;;;0.15;0.10;;;20.40;99.90;;;;;;5093729;28;20375;-69
2023/08/12 11:03:43;;;;;;;0.30;0.20;;;20.50;99.90;;;;;;5104595;28;20043;-69
2023/08/12 11:06:10;;;;;;;0.00;0.00;;;20.40;99.90;;;;;;5116399;28;20039;-67
2023/08/12 11:08:36;;;;;;;0.10;0.10;;;20.40;99.90;;;;;;5115908;28;20133;-67
2023/08/12 11:11:02;;;;;;;0.68;0.15;;;20.40;99.90;;;;;;5112436;28;20127;-67
2023/08/12 11:13:28;;;;;;;0.10;0.10;;;20.50;99.90;;;;;;5103269;28;20068;-69
2023/08/12 11:16:07;;;;;;;0.10;0.10;;;20.40;99.90;;;;;;5096889;28;20402;-70
2023/08/12 11:18:33;;;;;;;0.20;0.20;;;20.40;99.90;;;;;;5109689;27;20050;-70
2023/08/12 11:20:58;;;;;;;0.00;0.00;;;20.40;99.90;;;;;;5123004;27;20161;-69
2023/08/12 11:23:24;;;;;;;0.10;0.10;;;20.40;99.90;;;;;;5110341;27;20031;-68
2023/08/12 11:25:50;;;;;;;0.10;0.10;;;20.30;99.90;;;;;;5116752;27;20043;-67
2023/08/12 11:28:19;;;;;;;0.00;0.00;;;20.30;99.90;;;;;;5114438;27;20039;-69
2023/08/12 11:30:45;;;;;;;0.20;0.20;;;20.30;99.90;;;;;;5107110;28;20050;-73
2023/08/12 11:33:12;;;;;;;0.05;0.05;;;20.00;99.90;;;;;;5121763;27;20486;-75
2023/08/12 11:35:38;;;;;;;0.13;0.13;;;19.70;99.90;;;;;;5137124;27;20363;-73
2023/08/12 11:38:05;;;;;;;0.10;0.10;;;19.30;99.90;;;;;;5102866;27;20526;-69
2023/08/12 11:40:31;;;;;;;2.13;0.10;;;19.10;99.90;;;;;;5106039;27;20500;-69
2023/08/12 11:42:57;;;;;;;0.57;0.57;;;18.80;99.90;;;;;;5107744;28;20048;-70
2023/08/12 11:45:24;;;;;;;0.22;0.10;;;18.80;99.90;;;;;;5097976;27;20039;-66
2023/08/12 11:47:54;;;;;;;1.02;0.20;;;18.80;99.90;;;;;;5105242;28;20065;-73
2023/08/12 11:50:22;;;;;;;0.38;0.38;;;18.80;99.90;;;;;;5124668;27;20397;-69
2023/08/12 11:52:49;;;;;;;0.17;0.17;;;18.90;99.90;;;;;;5106330;27;20150;-72
2023/08/12 11:55:15;;;;;;;0.88;0.60;;;19.10;99.90;;;;;;5095179;28;20042;-67
2023/08/12 11:57:41;;;;;;;0.30;0.30;;;19.20;99.90;;;;;;5104986;27;20040;-69
2023/08/12 12:00:13;;;;;;;0.20;0.20;;;19.50;99.90;;;;;;5106151;27;20039;-72
2023/08/12 12:02:41;;;;;;;1.98;0.98;;;19.70;99.90;;;;;;5100502;28;20435;-72
2023/08/12 12:05:10;;;;;;;0.10;0.10;;;19.50;99.90;;;;;;5107096;27;20051;-71
2023/08/12 12:07:37;;;;;;;0.22;0.17;;;19.40;99.90;;;;;;5126579;27;20088;-72
2023/08/12 12:10:02;;;;;;;0.60;0.60;;;19.40;99.90;;;;;;5109879;27;20062;-75
2023/08/12 12:12:28;;;;;;;0.10;0.10;;;19.40;99.90;;;;;;5109684;28;20067;-72
2023/08/12 12:14:55;;;;;;;0.30;0.30;;;19.40;99.90;;;;;;5106512;27;20088;-73
2023/08/12 12:17:24;;;;;;;0.00;0.00;;;19.50;99.90;;;;;;5086269;27;20044;-73
2023/08/12 12:19:57;;;;;;;1.50;0.35;;;19.60;99.90;;;;;;5103794;28;20039;-75
2023/08/12 12:22:32;;;;;;;1.63;0.35;;;19.60;99.90;;;;;;5097313;27;20690;-71
2023/08/12 12:25:00;;;;;;;0.00;0.00;;;19.60;99.90;;;;;;5095355;28;20043;-74
2023/08/12 12:27:28;;;;;;;0.40;0.40;;;19.80;99.90;;;;;;5099523;27;20053;-73
2023/08/12 12:29:54;;;;;;;0.30;0.30;;;20.00;99.90;;;;;;5116497;27;20094;-71
2023/08/12 12:32:20;;;;;;;0.10;0.10;;;20.10;99.90;;;;;;5104926;28;20122;-75
2023/08/12 12:34:46;;;;;;;0.40;0.40;;;20.20;99.90;;;;;;5098655;28;20044;-76
2023/08/12 12:37:15;;;;;;;0.20;0.20;;;20.10;99.90;;;;;;5101784;27;20050;-77
2023/08/12 12:39:41;;;;;;;0.10;0.10;;;20.10;99.90;;;;;;5113282;27;20454;-73
2023/08/12 12:42:07;;;;;;;0.10;0.10;;;20.20;99.90;;;;;;5122842;27;20126;-75
2023/08/12 12:44:33;;;;;;;0.90;0.32;;;20.40;99.90;;;;;;5109422;27;20045;-73
2023/08/12 12:46:58;;;;;;;2.92;0.57;;;20.50;99.90;;;;;;5110990;27;20478;-75